createdAt,value
2023-05-19T00:00:23.054Z,65.40
2023-05-19T00:02:51.262Z,65.11
2023-05-19T00:05:19.943Z,65.50
2023-05-19T00:07:48.187Z,64.96
2023-05-19T00:10:17.586Z,64.69
2023-05-19T00:12:45.891Z,65.11
2023-05-19T00:15:16.252Z,65.86
2023-05-19T00:17:43.918Z,64.95
2023-05-19T00:20:12.818Z,65.66
2023-05-19T00:22:47.342Z,65.27
2023-05-19T00:25:15.867Z,66.82
2023-05-19T00:27:48.621Z,66.13
2023-05-19T00:30:18.512Z,66.09
2023-05-19T00:32:49.263Z,66.60
2023-05-19T00:35:17.795Z,66.80
2023-05-19T00:37:45.529Z,66.21
2023-05-19T00:40:13.179Z,66.19
2023-05-19T00:42:41.240Z,66.59
2023-05-19T00:45:09.833Z,66.78
2023-05-19T00:47:38.896Z,66.95
2023-05-19T00:50:07.522Z,66.84
2023-05-19T00:52:35.654Z,66.57
2023-05-19T00:55:03.512Z,66.74
2023-05-19T00:57:31.510Z,67.40
2023-05-19T00:59:59.101Z,67.32
2023-05-19T01:02:29.826Z,66.39
2023-05-19T01:04:59.584Z,67.02
2023-05-19T01:07:27.385Z,67.20
2023-05-19T01:09:55.131Z,67.80
2023-05-19T01:12:22.618Z,68.98
2023-05-19T01:14:50.300Z,68.59
2023-05-19T01:17:23.592Z,68.11
2023-05-19T01:20:06.595Z,68.36
2023-05-19T01:22:43.754Z,68.80
2023-05-19T01:25:38.741Z,69.05
2023-05-19T01:28:32.322Z,68.76
2023-05-19T01:31:02.093Z,69.06
2023-05-19T01:33:31.658Z,69.57
2023-05-19T01:36:00.771Z,70.01
2023-05-19T01:38:29.431Z,69.07
2023-05-19T01:40:58.409Z,69.58
2023-05-19T01:43:29.329Z,70.15
2023-05-19T01:45:58.788Z,69.96
2023-05-19T01:48:28.334Z,69.92
2023-05-19T01:50:58.953Z,70.05
2023-05-19T01:53:26.519Z,70.48
2023-05-19T01:55:56.207Z,70.44
2023-05-19T01:58:30.642Z,70.17
2023-05-19T02:01:01.520Z,69.98
2023-05-19T02:03:55.500Z,70.80
2023-05-19T02:06:31.169Z,71.66
2023-05-19T02:09:01.856Z,70.78
2023-05-19T02:11:37.411Z,71.02
2023-05-19T02:14:10.159Z,70.68
2023-05-19T02:16:37.643Z,70.71
2023-05-19T02:19:06.718Z,71.24
2023-05-19T02:21:34.572Z,70.64
2023-05-19T02:24:02.136Z,70.22
2023-05-19T02:26:29.794Z,70.95
2023-05-19T02:28:57.311Z,70.11
2023-05-19T02:31:25.028Z,71.32
2023-05-19T02:33:54.423Z,69.69
2023-05-19T02:36:26.499Z,70.17
2023-05-19T02:38:54.024Z,70.50
2023-05-19T02:41:23.228Z,70.47
2023-05-19T02:43:50.939Z,70.02
2023-05-19T02:46:18.564Z,70.67
2023-05-19T02:48:48.488Z,69.95
2023-05-19T02:51:16.043Z,70.56
2023-05-19T02:53:44.962Z,71.26
2023-05-19T02:56:14.633Z,70.91
2023-05-19T02:58:43.089Z,67.80
2023-05-19T03:01:11.024Z,71.15
2023-05-19T03:03:38.935Z,70.55
2023-05-19T03:06:08.753Z,69.93
2023-05-19T03:08:36.553Z,70.01
2023-05-19T03:11:05.477Z,70.29
2023-05-19T03:13:34.906Z,70.53
2023-05-19T03:16:03.446Z,70.45
2023-05-19T03:18:31.046Z,70.26
2023-05-19T03:20:58.574Z,70.83
2023-05-19T03:23:26.619Z,71.48
2023-05-19T03:25:55.933Z,64.93
2023-05-19T03:28:27.237Z,67.78
2023-05-19T03:30:54.912Z,66.88
2023-05-19T03:33:23.899Z,68.35
2023-05-19T03:35:53.111Z,66.69
2023-05-19T03:38:20.821Z,69.56
2023-05-19T03:40:48.412Z,65.34
2023-05-19T03:43:16.320Z,69.45
2023-05-19T03:45:45.396Z,70.06
2023-05-19T03:48:13.729Z,66.04
2023-05-19T03:50:41.383Z,71.44
2023-05-19T03:53:08.965Z,71.97
2023-05-19T03:55:37.246Z,72.20
2023-05-19T03:58:04.834Z,69.46
2023-05-19T04:00:32.670Z,70.49
2023-05-19T04:03:01.945Z,70.71
2023-05-19T04:05:29.590Z,69.52
2023-05-19T04:07:57.298Z,69.67
2023-05-19T04:10:24.822Z,66.73
2023-05-19T04:12:52.719Z,68.62
2023-05-19T04:15:20.282Z,69.03
2023-05-19T04:17:47.909Z,66.10
2023-05-19T04:20:16.787Z,70.50
2023-05-19T04:22:44.290Z,70.01
2023-05-19T04:25:11.914Z,71.56
2023-05-19T04:27:39.785Z,71.93
2023-05-19T04:30:08.564Z,70.26
2023-05-19T04:32:37.437Z,69.44
2023-05-19T04:35:05.766Z,70.69
2023-05-19T04:37:38.374Z,69.80
2023-05-19T04:40:09.326Z,67.13
2023-05-19T04:42:36.843Z,68.89
2023-05-19T04:45:05.556Z,68.98
2023-05-19T04:47:36.847Z,64.93
2023-05-19T04:50:05.061Z,68.61
2023-05-19T04:52:34.063Z,67.04
2023-05-19T04:55:01.619Z,67.94
2023-05-19T04:57:29.163Z,69.73
2023-05-19T04:59:59.898Z,67.97
2023-05-19T05:02:28.232Z,65.88
2023-05-19T05:04:56.603Z,64.36
2023-05-19T05:07:24.211Z,67.63
2023-05-19T05:09:53.081Z,61.80
2023-05-19T05:12:21.119Z,66.65
2023-05-19T05:14:49.853Z,65.48
2023-05-19T05:17:17.963Z,65.72
2023-05-19T05:19:46.064Z,64.23
2023-05-19T05:22:14.310Z,59.43
2023-05-19T05:24:42.269Z,63.43
2023-05-19T05:27:11.551Z,64.43
2023-05-19T05:29:39.114Z,63.06
2023-05-19T05:32:07.920Z,60.48
2023-05-19T05:34:35.939Z,60.85
2023-05-19T05:37:03.465Z,58.76
2023-05-19T05:39:31.794Z,57.46
2023-05-19T05:41:59.320Z,59.51
2023-05-19T05:44:28.182Z,58.28
2023-05-19T05:46:56.215Z,59.15
2023-05-19T05:49:24.288Z,61.29
2023-05-19T05:52:04.976Z,60.53
2023-05-19T05:54:34.039Z,59.76
2023-05-19T05:57:02.536Z,61.08
2023-05-19T05:59:31.395Z,58.50
2023-05-19T06:01:59.095Z,56.22
2023-05-19T06:04:26.678Z,56.06
2023-05-19T06:07:00.944Z,57.37
2023-05-19T06:09:29.767Z,57.52
2023-05-19T06:11:59.475Z,61.23
2023-05-19T06:14:27.061Z,61.65
2023-05-19T06:16:56.262Z,61.58
2023-05-19T06:19:25.524Z,56.67
2023-05-19T06:21:55.495Z,55.52
2023-05-19T06:24:23.007Z,57.44
2023-05-19T06:26:50.542Z,59.19
2023-05-19T06:29:18.186Z,57.74
2023-05-19T06:31:46.577Z,58.85
2023-05-19T06:34:17.615Z,58.78
2023-05-19T06:36:45.269Z,58.49
2023-05-19T06:39:12.814Z,61.96
2023-05-19T06:41:40.356Z,59.45
2023-05-19T06:44:08.374Z,56.85
2023-05-19T06:46:36.112Z,58.05
2023-05-19T06:49:03.666Z,56.67
2023-05-19T06:51:32.721Z,54.67
2023-05-19T06:54:00.242Z,56.79
2023-05-19T06:56:27.744Z,53.25
2023-05-19T06:58:55.452Z,54.10
2023-05-19T07:01:23.153Z,54.26
2023-05-19T07:03:50.891Z,52.61
2023-05-19T07:06:18.502Z,53.40
2023-05-19T07:08:47.359Z,52.27
2023-05-19T07:11:15.312Z,54.30
2023-05-19T07:13:42.860Z,54.97
2023-05-19T07:16:10.649Z,55.23
2023-05-19T07:18:41.305Z,51.91
2023-05-19T07:21:08.925Z,56.30
2023-05-19T07:23:36.553Z,55.01
2023-05-19T07:26:05.888Z,46.59
2023-05-19T07:28:34.289Z,47.78
2023-05-19T07:31:02.397Z,47.72
2023-05-19T07:33:30.000Z,49.57
2023-05-19T07:35:57.521Z,50.49
2023-05-19T07:38:25.098Z,49.66
2023-05-19T07:40:52.631Z,50.64
2023-05-19T07:43:21.470Z,48.39
2023-05-19T07:45:49.037Z,46.05
2023-05-19T07:48:18.707Z,47.39
2023-05-19T07:50:46.680Z,43.34
2023-05-19T07:53:14.383Z,50.55
2023-05-19T07:55:42.125Z,49.17
2023-05-19T07:58:09.780Z,51.41
2023-05-19T08:00:38.657Z,48.79
2023-05-19T08:03:06.340Z,51.01
2023-05-19T08:05:35.359Z,46.31
2023-05-19T08:08:02.953Z,49.93
2023-05-19T08:10:30.762Z,46.17
2023-05-19T08:12:58.627Z,45.32
2023-05-19T08:15:26.421Z,50.53
2023-05-19T08:17:55.484Z,44.01
2023-05-19T08:20:24.389Z,47.75
2023-05-19T08:22:51.989Z,43.83
2023-05-19T08:25:19.786Z,42.52
2023-05-19T08:27:47.384Z,41.94
2023-05-19T08:30:14.926Z,41.64
2023-05-19T08:32:42.610Z,41.25
2023-05-19T08:35:12.021Z,44.10
2023-05-19T08:37:39.584Z,44.20
2023-05-19T08:40:08.916Z,47.46
2023-05-19T08:42:36.478Z,45.52
2023-05-19T08:45:04.510Z,46.02
2023-05-19T08:47:33.092Z,44.27
2023-05-19T08:50:07.429Z,42.25
2023-05-19T08:52:47.844Z,39.11
2023-05-19T08:55:22.036Z,43.10
2023-05-19T08:57:49.675Z,45.64
2023-05-19T09:00:17.685Z,41.64
2023-05-19T09:02:55.068Z,39.82
2023-05-19T09:05:28.935Z,42.00
2023-05-19T09:07:57.987Z,42.46
2023-05-19T09:10:27.116Z,43.43
2023-05-19T09:12:55.444Z,41.65
2023-05-19T09:15:27.944Z,35.57
2023-05-19T09:18:06.899Z,34.18
2023-05-19T09:20:38.084Z,37.73
2023-05-19T09:23:07.802Z,43.85
2023-05-19T09:25:35.558Z,39.70
2023-05-19T09:28:03.337Z,37.58
2023-05-19T09:30:31.004Z,39.08
2023-05-19T09:32:58.928Z,43.36
2023-05-19T09:35:26.463Z,38.15
2023-05-19T09:37:54.066Z,37.51
2023-05-19T09:40:22.909Z,40.71
2023-05-19T09:42:50.553Z,37.77
2023-05-19T09:45:18.161Z,40.69
2023-05-19T09:47:45.704Z,39.66
2023-05-19T09:50:14.115Z,41.11
2023-05-19T09:52:44.106Z,39.65
2023-05-19T09:55:12.752Z,35.58
2023-05-19T09:57:41.825Z,39.56
2023-05-19T10:00:14.429Z,40.49
2023-05-19T10:02:44.673Z,34.81
2023-05-19T10:05:16.739Z,39.78
2023-05-19T10:07:48.507Z,37.82
2023-05-19T10:10:16.638Z,35.19
2023-05-19T10:12:45.979Z,36.43
2023-05-19T10:15:15.925Z,37.60
2023-05-19T10:17:44.525Z,33.40
2023-05-19T10:20:14.060Z,35.39
2023-05-19T10:22:41.970Z,36.66
2023-05-19T10:25:11.165Z,37.81
2023-05-19T10:27:44.090Z,38.17
2023-05-19T10:30:16.590Z,35.80
2023-05-19T10:32:46.555Z,35.81
2023-05-19T10:35:29.303Z,36.83
2023-05-19T10:38:07.034Z,38.44
2023-05-19T10:40:38.337Z,37.31
2023-05-19T10:43:16.849Z,38.71
2023-05-19T10:45:49.217Z,36.80
2023-05-19T10:48:17.338Z,32.88
2023-05-19T10:50:46.566Z,34.86
2023-05-19T10:53:18.152Z,36.90
2023-05-19T10:55:47.474Z,37.66
2023-05-19T10:58:15.122Z,34.02
2023-05-19T11:00:42.675Z,34.97
2023-05-19T11:03:15.593Z,38.03
2023-05-19T11:05:45.424Z,38.71
2023-05-19T11:08:13.623Z,39.08
2023-05-19T11:10:44.929Z,37.86
2023-05-19T11:13:20.318Z,34.40
2023-05-19T11:15:47.894Z,36.49
2023-05-19T11:18:16.874Z,36.91
2023-05-19T11:20:44.653Z,36.73
2023-05-19T11:23:18.051Z,35.14
2023-05-19T11:25:48.030Z,33.20
2023-05-19T11:28:19.275Z,35.41
2023-05-19T11:30:50.456Z,39.13
2023-05-19T11:33:20.447Z,33.32
2023-05-19T11:35:49.354Z,35.71
2023-05-19T11:38:17.896Z,38.63
2023-05-19T11:40:45.850Z,33.71
2023-05-19T11:43:13.360Z,32.59
2023-05-19T11:45:40.910Z,34.99
2023-05-19T11:48:12.286Z,35.52
2023-05-19T11:50:44.049Z,32.45
2023-05-19T11:53:13.478Z,32.81
2023-05-19T11:55:43.437Z,34.99
2023-05-19T11:58:11.138Z,34.05
2023-05-19T12:00:40.325Z,29.61
2023-05-19T12:03:09.200Z,31.27
2023-05-19T12:05:41.765Z,34.67
2023-05-19T12:08:12.185Z,34.55
2023-05-19T12:10:40.535Z,35.26
2023-05-19T12:13:09.302Z,32.99
2023-05-19T12:15:37.589Z,33.50
2023-05-19T12:18:05.640Z,30.14
2023-05-19T12:20:35.994Z,32.08
2023-05-19T12:23:04.331Z,35.84
2023-05-19T12:25:33.585Z,35.45
2023-05-19T12:28:03.384Z,34.96
2023-05-19T12:30:32.898Z,34.77
2023-05-19T12:33:01.326Z,36.82
2023-05-19T12:35:29.654Z,36.30
2023-05-19T12:37:57.695Z,32.41
2023-05-19T12:40:26.176Z,32.05
2023-05-19T12:42:58.876Z,35.04
2023-05-19T12:45:28.143Z,32.67
2023-05-19T12:47:55.938Z,32.54
2023-05-19T12:50:31.154Z,35.13
2023-05-19T12:52:59.850Z,34.26
2023-05-19T12:55:28.015Z,34.73
2023-05-19T12:57:58.122Z,33.48
2023-05-19T13:00:28.989Z,36.80
2023-05-19T13:02:59.752Z,38.01
2023-05-19T13:05:28.224Z,36.98
2023-05-19T13:07:57.030Z,34.29
2023-05-19T13:10:26.933Z,32.44
2023-05-19T13:12:55.748Z,34.00
2023-05-19T13:15:26.204Z,35.90
2023-05-19T13:17:55.446Z,34.61
2023-05-19T13:20:23.710Z,33.25
2023-05-19T13:22:52.752Z,31.44
2023-05-19T13:25:21.395Z,35.50
2023-05-19T13:27:49.450Z,35.10
2023-05-19T13:30:17.211Z,35.44
2023-05-19T13:32:46.267Z,32.53
2023-05-19T13:35:14.426Z,32.77
2023-05-19T13:37:42.415Z,35.81
2023-05-19T13:40:10.802Z,34.03
2023-05-19T13:42:38.546Z,35.51
2023-05-19T13:45:06.978Z,32.72
2023-05-19T13:47:34.546Z,36.32
2023-05-19T13:50:04.375Z,33.55
2023-05-19T13:52:32.467Z,34.47
2023-05-19T13:55:00.218Z,31.89
2023-05-19T13:57:27.805Z,36.17
2023-05-19T14:00:02.656Z,34.87
2023-05-19T14:02:30.898Z,32.85
2023-05-19T14:04:58.688Z,32.16
2023-05-19T14:07:28.249Z,33.00
2023-05-19T14:09:56.309Z,34.29
2023-05-19T14:12:33.918Z,36.37
2023-05-19T14:15:09.154Z,36.04
2023-05-19T14:17:37.476Z,36.25
2023-05-19T14:20:06.185Z,34.79
2023-05-19T14:22:35.196Z,36.88
2023-05-19T14:25:03.040Z,36.49
2023-05-19T14:27:30.621Z,36.00
2023-05-19T14:29:58.357Z,34.55
2023-05-19T14:32:28.625Z,35.11
2023-05-19T14:34:57.739Z,33.36
2023-05-19T14:37:26.559Z,32.86
2023-05-19T14:39:55.853Z,33.89
2023-05-19T14:42:23.459Z,35.35
2023-05-19T14:44:51.015Z,33.67
2023-05-19T14:47:18.569Z,33.28
2023-05-19T14:49:46.087Z,33.61
2023-05-19T14:52:13.661Z,34.36
2023-05-19T14:54:41.379Z,34.07
2023-05-19T14:57:10.304Z,35.32
2023-05-19T14:59:38.119Z,33.04
2023-05-19T15:02:06.117Z,31.93
2023-05-19T15:04:33.682Z,34.09
2023-05-19T15:09:31.753Z,33.83
2023-05-19T15:12:01.101Z,32.26
2023-05-19T15:14:31.050Z,34.78
2023-05-19T15:16:59.164Z,32.47
2023-05-19T15:19:27.097Z,32.82
2023-05-19T15:21:54.987Z,32.13
2023-05-19T15:24:22.599Z,31.84
2023-05-19T15:26:50.167Z,30.75
2023-05-19T15:29:17.683Z,31.56
2023-05-19T15:31:46.735Z,34.56
2023-05-19T15:34:14.397Z,35.20
2023-05-19T15:36:41.923Z,31.63
2023-05-19T15:39:09.747Z,34.38
2023-05-19T15:41:37.324Z,34.73
2023-05-19T15:44:06.684Z,34.21
2023-05-19T15:46:34.445Z,34.67
2023-05-19T15:49:03.795Z,33.64
2023-05-19T15:51:31.584Z,33.30
2023-05-19T15:53:59.154Z,35.29
2023-05-19T15:56:26.692Z,34.69
2023-05-19T15:58:54.265Z,33.96
2023-05-19T16:01:22.241Z,32.17
2023-05-19T16:03:49.929Z,33.64
2023-05-19T16:06:18.833Z,35.25
2023-05-19T16:08:46.398Z,35.05
2023-05-19T16:11:14.444Z,34.91
2023-05-19T16:13:41.990Z,34.95
2023-05-19T16:16:09.642Z,35.00
2023-05-19T16:18:37.189Z,33.50
2023-05-19T16:21:05.052Z,34.93
2023-05-19T16:23:33.966Z,34.55
2023-05-19T16:26:01.521Z,36.39
2023-05-19T16:28:29.162Z,34.03
2023-05-19T16:30:58.335Z,34.70
2023-05-19T16:33:25.965Z,34.18
2023-05-19T16:35:53.585Z,34.73
2023-05-19T16:38:21.182Z,34.50
2023-05-19T16:40:50.139Z,36.38
2023-05-19T16:43:17.679Z,34.71
2023-05-19T16:45:45.246Z,35.78
2023-05-19T16:48:12.906Z,35.10
2023-05-19T16:50:40.702Z,35.19
2023-05-19T16:53:08.363Z,35.05
2023-05-19T16:55:35.950Z,35.39
2023-05-19T16:58:04.777Z,36.65
2023-05-19T17:00:32.671Z,33.69
2023-05-19T17:03:00.438Z,34.67
2023-05-19T17:05:28.184Z,34.44
2023-05-19T17:07:55.760Z,35.26
2023-05-19T17:10:23.395Z,34.36
2023-05-19T17:12:50.894Z,36.18
2023-05-19T17:15:19.771Z,35.97
2023-05-19T17:17:47.324Z,37.21
2023-05-19T17:20:14.974Z,34.67
2023-05-19T17:22:42.535Z,36.52
2023-05-19T17:25:11.161Z,35.27
2023-05-19T17:27:38.861Z,37.29
2023-05-19T17:30:07.890Z,37.59
2023-05-19T17:32:39.475Z,37.14
2023-05-19T17:35:08.338Z,37.08
2023-05-19T17:37:36.366Z,36.16
2023-05-19T17:40:04.223Z,40.40
2023-05-19T17:42:31.899Z,37.10
2023-05-19T17:44:59.620Z,38.76
2023-05-19T17:47:27.272Z,37.80
2023-05-19T17:49:56.155Z,37.92
2023-05-19T17:52:25.683Z,37.51
2023-05-19T17:54:53.811Z,38.90
2023-05-19T17:57:25.824Z,39.35
2023-05-19T17:59:53.883Z,39.15
2023-05-19T18:02:21.845Z,40.42
2023-05-19T18:04:49.915Z,38.38
2023-05-19T18:07:19.375Z,39.34
2023-05-19T18:09:47.558Z,38.79
2023-05-19T18:12:15.494Z,37.29
2023-05-19T18:14:43.019Z,40.02
2023-05-19T18:17:10.615Z,39.68
2023-05-19T18:19:38.182Z,39.87
2023-05-19T18:22:06.276Z,41.40
2023-05-19T18:24:35.449Z,40.76
2023-05-19T18:27:03.306Z,40.61
2023-05-19T18:29:31.093Z,40.43
2023-05-19T18:31:58.674Z,41.48
2023-05-19T18:34:27.664Z,41.85
2023-05-19T18:36:55.201Z,41.05
2023-05-19T18:39:22.835Z,40.94
2023-05-19T18:41:51.742Z,41.33
2023-05-19T18:44:19.444Z,43.16
2023-05-19T18:46:46.973Z,44.05
2023-05-19T18:49:14.577Z,42.57
2023-05-19T18:51:42.502Z,39.93
2023-05-19T18:54:12.336Z,42.35
2023-05-19T18:56:42.682Z,42.78
2023-05-19T18:59:11.677Z,44.16
2023-05-19T19:01:39.452Z,44.30
2023-05-19T19:04:07.223Z,42.75
2023-05-19T19:06:34.980Z,45.00
2023-05-19T19:09:03.393Z,41.90
2023-05-19T19:11:31.320Z,43.09
2023-05-19T19:13:58.991Z,45.49
2023-05-19T19:16:28.106Z,46.18
2023-05-19T19:18:55.761Z,45.84
2023-05-19T19:21:24.077Z,46.27
2023-05-19T19:23:53.386Z,44.48
2023-05-19T19:26:21.763Z,46.15
2023-05-19T19:28:49.311Z,43.93
2023-05-19T19:31:16.893Z,44.60
2023-05-19T19:33:45.842Z,46.78
2023-05-19T19:36:13.569Z,46.00
2023-05-19T19:38:41.275Z,48.36
2023-05-19T19:41:08.934Z,45.31
2023-05-19T19:43:36.474Z,47.17
2023-05-19T19:46:04.707Z,46.36
2023-05-19T19:48:32.372Z,46.76
2023-05-19T19:51:01.581Z,47.37
2023-05-19T19:53:29.151Z,47.56
2023-05-19T19:55:58.246Z,47.88
2023-05-19T19:58:26.627Z,47.89
2023-05-19T20:00:57.305Z,49.36
2023-05-19T20:03:26.116Z,48.79
2023-05-19T20:05:55.306Z,49.55
2023-05-19T20:08:24.517Z,49.39
2023-05-19T20:10:52.354Z,49.48
2023-05-19T20:13:20.034Z,48.63
2023-05-19T20:15:48.102Z,48.51
2023-05-19T20:18:15.809Z,48.33
2023-05-19T20:20:43.480Z,46.62
2023-05-19T20:23:13.237Z,50.67
2023-05-19T20:25:57.859Z,47.48
2023-05-19T20:28:30.270Z,51.06
2023-05-19T20:30:57.844Z,51.25
2023-05-19T20:33:25.582Z,52.43
2023-05-19T20:35:53.136Z,49.10
2023-05-19T20:38:20.649Z,51.95
2023-05-19T20:40:49.794Z,51.51
2023-05-19T20:43:17.592Z,50.34
2023-05-19T20:45:45.539Z,51.44
2023-05-19T20:48:13.151Z,47.94
2023-05-19T20:50:41.146Z,49.21
2023-05-19T20:53:08.730Z,51.26
2023-05-19T20:55:37.881Z,51.25
2023-05-19T20:58:06.874Z,48.79
2023-05-19T21:00:34.592Z,52.30
2023-05-19T21:03:02.523Z,49.41
2023-05-19T21:05:30.345Z,51.43
2023-05-19T21:07:57.952Z,51.78
2023-05-19T21:10:25.720Z,52.50
2023-05-19T21:12:53.254Z,53.49
2023-05-19T21:15:22.136Z,53.05
2023-05-19T21:17:49.698Z,51.16
2023-05-19T21:20:17.319Z,52.69
2023-05-19T21:22:44.833Z,50.65
2023-05-19T21:25:12.702Z,52.20
2023-05-19T21:27:40.556Z,49.04
2023-05-19T21:30:09.667Z,53.62
2023-05-19T21:32:38.552Z,53.96
2023-05-19T21:35:07.039Z,55.11
2023-05-19T21:37:34.599Z,54.42
2023-05-19T21:40:02.247Z,55.38
2023-05-19T21:42:29.763Z,55.37
2023-05-19T21:44:57.332Z,56.16
2023-05-19T21:47:24.976Z,53.80
2023-05-19T21:49:53.837Z,51.68
2023-05-19T21:52:21.814Z,55.45
2023-05-19T21:54:51.907Z,51.98
2023-05-19T21:57:19.449Z,52.17
2023-05-19T21:59:47.175Z,57.68
2023-05-19T22:02:14.718Z,57.86
2023-05-19T22:04:42.893Z,56.95
2023-05-19T22:07:11.926Z,57.81
2023-05-19T22:09:39.448Z,58.26
2023-05-19T22:12:08.253Z,55.82
2023-05-19T22:14:36.810Z,58.13
2023-05-19T22:17:04.455Z,57.16
2023-05-19T22:19:32.046Z,59.48
2023-05-19T22:22:09.852Z,59.49
2023-05-19T22:24:41.726Z,60.77
2023-05-19T22:27:09.483Z,58.59
2023-05-19T22:29:38.430Z,57.99
2023-05-19T22:32:07.671Z,59.99
2023-05-19T22:34:35.412Z,60.86
2023-05-19T22:37:02.984Z,60.22
2023-05-19T22:39:30.540Z,61.18
2023-05-19T22:41:59.434Z,60.34
2023-05-19T22:44:26.961Z,60.12
2023-05-19T22:46:54.510Z,60.35
2023-05-19T22:49:23.273Z,55.85
2023-05-19T22:51:51.151Z,59.71
2023-05-19T22:54:18.914Z,58.91
2023-05-19T22:56:48.676Z,59.39
2023-05-19T22:59:18.441Z,60.38
2023-05-19T23:01:46.961Z,60.74
2023-05-19T23:04:15.272Z,58.82
2023-05-19T23:06:42.850Z,59.23
2023-05-19T23:09:10.418Z,58.22
2023-05-19T23:11:37.924Z,61.36
2023-05-19T23:14:05.784Z,59.93
2023-05-19T23:16:34.807Z,61.77
2023-05-19T23:19:02.391Z,60.86
2023-05-19T23:21:31.289Z,60.83
2023-05-19T23:23:59.422Z,59.99
2023-05-19T23:26:27.492Z,61.98
2023-05-19T23:28:55.096Z,61.81
2023-05-19T23:31:22.750Z,59.82
2023-05-19T23:33:51.667Z,61.93
2023-05-19T23:36:19.324Z,61.33
2023-05-19T23:38:46.978Z,59.38
2023-05-19T23:41:14.887Z,59.59
2023-05-19T23:43:42.621Z,62.18
2023-05-19T23:46:10.260Z,59.73
2023-05-19T23:48:37.895Z,58.99
2023-05-19T23:51:06.999Z,61.66
2023-05-19T23:53:34.627Z,59.71
2023-05-19T23:56:02.204Z,60.83
2023-05-19T23:58:29.864Z,60.60
